createdAt,value
2019-05-25T00:00:23.455Z,29.80
2019-05-25T00:02:49.693Z,30.50
2019-05-25T00:05:16.117Z,31.30
2019-05-25T00:07:42.452Z,30.10
2019-05-25T00:10:09.285Z,31.30
2019-05-25T00:12:35.574Z,32.90
2019-05-25T00:15:04.254Z,31.80
2019-05-25T00:17:30.485Z,32.30
2019-05-25T00:19:56.728Z,32.10
2019-05-25T00:22:22.973Z,33.00
2019-05-25T00:24:49.208Z,33.00
2019-05-25T00:27:15.537Z,33.60
2019-05-25T00:29:42.190Z,34.10
2019-05-25T00:32:08.725Z,34.40
2019-05-25T00:34:35.275Z,34.20
2019-05-25T00:37:01.513Z,35.10
2019-05-25T00:39:27.767Z,34.70
2019-05-25T00:41:54.004Z,36.10
2019-05-25T00:44:20.348Z,35.50
2019-05-25T00:46:46.583Z,36.60
2019-05-25T00:49:12.922Z,36.00
2019-05-25T00:51:39.261Z,37.10
2019-05-25T00:54:05.740Z,37.30
2019-05-25T00:56:31.957Z,38.90
2019-05-25T00:58:58.202Z,39.40
2019-05-25T01:01:24.611Z,39.40
2019-05-25T01:03:51.084Z,40.30
2019-05-25T01:06:17.324Z,41.20
2019-05-25T01:08:43.552Z,41.20
2019-05-25T01:11:09.798Z,42.50
2019-05-25T01:13:36.549Z,41.50
2019-05-25T01:16:03.006Z,42.40
2019-05-25T01:18:29.243Z,42.20
2019-05-25T01:20:55.685Z,43.10
2019-05-25T01:23:22.027Z,42.90
2019-05-25T01:25:48.492Z,42.30
2019-05-25T01:28:14.835Z,42.20
2019-05-25T01:30:41.090Z,42.60
2019-05-25T01:33:07.316Z,43.60
2019-05-25T01:35:33.561Z,45.30
2019-05-25T01:37:59.889Z,46.80
2019-05-25T01:40:26.441Z,45.80
2019-05-25T01:42:52.749Z,47.40
2019-05-25T01:45:19.030Z,46.60
2019-05-25T01:47:45.329Z,48.40
2019-05-25T01:50:12.367Z,49.00
2019-05-25T01:52:38.806Z,49.50
2019-05-25T01:55:05.743Z,52.30
2019-05-25T01:57:31.992Z,52.80
2019-05-25T01:59:58.622Z,53.60
2019-05-25T02:02:24.861Z,53.90
2019-05-25T02:04:52.165Z,56.10
2019-05-25T02:07:18.421Z,56.00
2019-05-25T02:09:44.647Z,59.10
2019-05-25T02:12:10.888Z,60.10
2019-05-25T02:14:37.120Z,60.80
2019-05-25T02:17:03.497Z,60.50
2019-05-25T02:19:29.730Z,60.40
2019-05-25T02:25:25.484Z,60.60
2019-05-25T02:27:51.728Z,60.00
2019-05-25T02:30:21.766Z,62.00
2019-05-25T02:32:48.017Z,61.70
2019-05-25T02:35:26.426Z,61.80
2019-05-25T02:37:53.061Z,59.90
2019-05-25T02:40:19.755Z,59.50
2019-05-25T02:42:46.017Z,58.70
2019-05-25T02:45:12.465Z,58.80
2019-05-25T02:47:38.711Z,60.80
2019-05-25T02:50:08.138Z,61.00
2019-05-25T02:52:34.379Z,61.60
2019-05-25T02:55:00.721Z,62.10
2019-05-25T02:57:27.254Z,62.00
2019-05-25T02:59:53.504Z,62.30
2019-05-25T03:02:19.854Z,62.70
2019-05-25T03:04:46.206Z,63.80
2019-05-25T03:07:12.774Z,66.00
2019-05-25T03:09:39.417Z,66.50
2019-05-25T03:12:06.261Z,65.50
2019-05-25T03:14:32.509Z,68.40
2019-05-25T03:16:58.846Z,68.50
2019-05-25T03:19:25.104Z,70.10
2019-05-25T03:21:51.373Z,70.70
2019-05-25T03:24:17.927Z,73.30
2019-05-25T03:26:44.169Z,72.40
2019-05-25T03:29:10.405Z,74.40
2019-05-25T03:31:36.658Z,75.50
2019-05-25T03:34:02.998Z,74.70
2019-05-25T03:36:29.343Z,76.10
2019-05-25T03:38:55.575Z,76.60
2019-05-25T03:41:21.836Z,78.20
2019-05-25T03:43:48.094Z,80.70
2019-05-25T03:46:14.435Z,80.20
2019-05-25T03:48:40.781Z,79.80
2019-05-25T03:51:07.353Z,81.50
2019-05-25T03:53:33.593Z,82.40
2019-05-25T03:56:05.936Z,83.60
2019-05-25T03:58:28.005Z,84.60
2019-05-25T04:00:54.252Z,85.00
2019-05-25T04:03:20.499Z,85.10
2019-05-25T04:05:47.090Z,86.20
2019-05-25T04:08:13.333Z,87.60
2019-05-25T04:10:39.863Z,89.30
2019-05-25T04:13:06.106Z,90.40
2019-05-25T04:15:32.352Z,90.30
2019-05-25T04:17:58.885Z,90.70
2019-05-25T04:20:25.480Z,91.60
2019-05-25T04:22:51.716Z,91.70
2019-05-25T04:25:17.965Z,93.10
2019-05-25T04:27:44.313Z,93.00
2019-05-25T04:30:11.254Z,94.90
2019-05-25T04:32:37.851Z,94.20
2019-05-25T04:35:05.313Z,95.80
2019-05-25T04:37:31.554Z,95.90
2019-05-25T04:39:57.800Z,95.50
2019-05-25T04:42:24.043Z,95.30
2019-05-25T04:44:50.389Z,95.90
2019-05-25T04:47:26.656Z,96.70
2019-05-25T04:49:44.898Z,97.20
2019-05-25T04:52:11.146Z,98.30
2019-05-25T04:54:37.406Z,97.40
2019-05-25T04:57:04.208Z,96.30
2019-05-25T04:59:31.085Z,97.50
2019-05-25T05:01:57.325Z,99.40
2019-05-25T05:04:23.593Z,99.90
2019-05-25T05:06:49.954Z,99.60
2019-05-25T05:09:16.388Z,99.40
2019-05-25T05:11:42.627Z,98.60
2019-05-25T05:14:08.874Z,99.10
2019-05-25T05:16:35.505Z,99.60
2019-05-25T05:19:01.849Z,99.90
2019-05-25T05:21:28.103Z,99.90
2019-05-25T05:23:54.348Z,99.90
2019-05-25T05:26:20.591Z,99.90
2019-05-25T05:28:49.131Z,99.90
2019-05-25T05:31:23.497Z,99.90
2019-05-25T05:33:43.661Z,99.90
2019-05-25T05:36:11.618Z,99.90
2019-05-25T05:38:38.348Z,99.90
2019-05-25T05:41:06.113Z,99.90
2019-05-25T05:43:35.644Z,99.40
2019-05-25T05:46:03.481Z,99.90
2019-05-25T05:48:31.228Z,99.60
2019-05-25T05:50:59.381Z,99.90
2019-05-25T05:53:25.624Z,99.30
2019-05-25T05:55:51.922Z,98.80
2019-05-25T05:58:18.488Z,98.60
2019-05-25T06:00:45.671Z,98.10
2019-05-25T06:03:11.971Z,97.80
2019-05-25T06:05:38.203Z,98.40
2019-05-25T06:08:04.444Z,98.60
2019-05-25T06:10:30.678Z,98.40
2019-05-25T06:12:57.069Z,99.70
2019-05-25T06:15:23.622Z,97.80
2019-05-25T06:17:49.875Z,96.60
2019-05-25T06:20:16.220Z,94.80
2019-05-25T06:22:42.457Z,92.60
2019-05-25T06:25:09.135Z,92.00
2019-05-25T06:27:35.432Z,92.10
2019-05-25T06:30:03.861Z,90.20
2019-05-25T06:32:30.211Z,90.20
2019-05-25T06:34:56.446Z,89.20
2019-05-25T06:37:22.810Z,89.20
2019-05-25T06:39:49.045Z,88.10
2019-05-25T06:42:15.276Z,84.00
2019-05-25T06:44:41.644Z,84.50
2019-05-25T06:47:07.949Z,81.00
2019-05-25T06:49:34.188Z,75.80
2019-05-25T06:52:00.428Z,72.80
2019-05-25T06:54:26.961Z,73.90
2019-05-25T06:56:53.203Z,71.90
2019-05-25T06:59:19.564Z,72.10
2019-05-25T07:01:45.785Z,73.60
2019-05-25T07:04:12.124Z,71.20
2019-05-25T07:06:38.369Z,66.00
2019-05-25T07:09:05.609Z,65.50
2019-05-25T07:11:31.946Z,66.50
2019-05-25T07:13:58.173Z,68.10
2019-05-25T07:16:24.429Z,70.10
2019-05-25T07:18:50.667Z,66.90
2019-05-25T07:21:16.908Z,65.40
2019-05-25T07:23:43.236Z,65.90
2019-05-25T07:26:09.489Z,61.20
2019-05-25T07:28:35.708Z,54.90
2019-05-25T07:31:01.958Z,52.10
2019-05-25T07:33:28.394Z,51.90
2019-05-25T07:35:54.641Z,47.70
2019-05-25T07:38:20.892Z,47.70
2019-05-25T07:40:47.470Z,48.00
2019-05-25T07:43:13.716Z,47.70
2019-05-25T07:45:40.637Z,50.10
2019-05-25T07:48:07.281Z,52.30
2019-05-25T07:50:33.540Z,51.20
2019-05-25T07:53:00.047Z,49.80
2019-05-25T07:55:26.282Z,47.90
2019-05-25T07:57:52.522Z,43.70
2019-05-25T08:00:18.919Z,46.40
2019-05-25T08:02:45.227Z,44.70
2019-05-25T08:05:11.834Z,45.40
2019-05-25T08:07:38.333Z,46.20
2019-05-25T08:10:05.582Z,48.50
2019-05-25T08:12:31.806Z,47.00
2019-05-25T08:14:58.346Z,46.60
2019-05-25T08:17:24.685Z,53.20
2019-05-25T08:19:51.130Z,50.20
2019-05-25T08:22:17.469Z,46.90
2019-05-25T08:24:43.987Z,46.50
2019-05-25T08:27:10.234Z,45.10
2019-05-25T08:29:36.473Z,43.70
2019-05-25T08:32:02.906Z,43.70
2019-05-25T08:34:29.270Z,40.00
2019-05-25T08:36:55.841Z,41.90
2019-05-25T08:39:22.197Z,41.00
2019-05-25T08:41:48.709Z,38.30
2019-05-25T08:44:15.063Z,36.30
2019-05-25T08:46:41.295Z,34.20
2019-05-25T08:49:07.550Z,32.80
2019-05-25T08:51:33.878Z,35.40
2019-05-25T08:54:00.222Z,39.20
2019-05-25T08:56:26.712Z,38.80
2019-05-25T08:58:55.489Z,33.50
2019-05-25T09:01:21.213Z,29.40
2019-05-25T09:03:47.442Z,30.90
2019-05-25T09:06:13.682Z,32.70
2019-05-25T09:08:39.916Z,34.70
2019-05-25T09:11:06.209Z,33.60
2019-05-25T09:13:32.501Z,31.80
2019-05-25T09:15:58.745Z,33.60
2019-05-25T09:18:24.994Z,29.80
2019-05-25T09:20:51.547Z,28.40
2019-05-25T09:23:17.785Z,24.50
2019-05-25T09:25:44.021Z,22.10
2019-05-25T09:28:10.715Z,20.40
2019-05-25T09:30:37.063Z,23.00
2019-05-25T09:33:03.282Z,23.90
2019-05-25T09:35:29.530Z,24.90
2019-05-25T09:37:55.772Z,22.20
2019-05-25T09:40:22.122Z,22.10
2019-05-25T09:46:29.485Z,19.90
2019-05-25T09:48:55.740Z,21.70
2019-05-25T09:51:21.973Z,23.00
2019-05-25T09:53:48.229Z,24.90
2019-05-25T09:56:14.455Z,27.30
2019-05-25T09:58:40.703Z,24.70
2019-05-25T10:01:06.941Z,22.50
2019-05-25T10:03:33.177Z,22.10
2019-05-25T10:05:59.521Z,23.90
2019-05-25T10:08:25.754Z,24.50
2019-05-25T10:10:52.094Z,23.90
2019-05-25T10:13:18.321Z,23.50
2019-05-25T10:15:44.667Z,23.60
2019-05-25T10:18:10.902Z,24.20
2019-05-25T10:20:37.131Z,24.10
2019-05-25T10:23:03.567Z,21.80
2019-05-25T10:25:29.796Z,22.70
2019-05-25T10:27:56.033Z,23.00
2019-05-25T10:30:22.687Z,21.90
2019-05-25T10:32:49.028Z,21.60
2019-05-25T10:35:15.374Z,20.90
2019-05-25T10:37:41.727Z,19.00
2019-05-25T10:40:08.999Z,20.70
2019-05-25T10:42:35.233Z,20.80
2019-05-25T10:45:03.474Z,20.00
2019-05-25T10:47:29.860Z,17.80
2019-05-25T10:49:56.144Z,17.70
2019-05-25T10:52:22.472Z,15.70
2019-05-25T10:54:48.800Z,14.50
2019-05-25T10:57:15.040Z,16.20
2019-05-25T10:59:52.457Z,16.40
2019-05-25T11:02:09.431Z,16.30
2019-05-25T11:04:35.648Z,16.80
2019-05-25T11:07:01.884Z,14.90
2019-05-25T11:09:28.120Z,14.70
2019-05-25T11:11:54.680Z,15.20
2019-05-25T11:14:21.218Z,16.50
2019-05-25T11:16:47.453Z,16.00
2019-05-25T11:19:13.706Z,16.40
2019-05-25T11:21:40.216Z,16.90
2019-05-25T11:24:06.448Z,15.80
2019-05-25T11:26:32.778Z,15.10
2019-05-25T11:28:59.019Z,17.10
2019-05-25T11:31:25.532Z,15.30
2019-05-25T11:33:51.776Z,14.90
2019-05-25T11:36:18.026Z,17.70
2019-05-25T11:38:44.283Z,17.90
2019-05-25T11:41:10.613Z,17.90
2019-05-25T11:43:36.953Z,16.10
2019-05-25T11:46:03.381Z,16.10
2019-05-25T11:48:29.621Z,17.10
2019-05-25T11:50:55.857Z,16.20
2019-05-25T11:53:22.200Z,16.80
2019-05-25T11:55:48.428Z,16.00
2019-05-25T11:58:14.770Z,20.50
2019-05-25T12:00:41.296Z,22.70
2019-05-25T12:03:07.544Z,24.20
2019-05-25T12:05:33.790Z,22.30
2019-05-25T12:08:00.296Z,22.00
2019-05-25T12:10:26.537Z,21.60
2019-05-25T12:12:52.786Z,18.40
2019-05-25T12:15:19.389Z,17.50
2019-05-25T12:17:45.633Z,18.20
2019-05-25T12:20:12.461Z,20.80
2019-05-25T12:22:38.955Z,21.90
2019-05-25T12:25:05.608Z,21.30
2019-05-25T12:27:31.833Z,18.20
2019-05-25T12:29:58.085Z,18.20
2019-05-25T12:32:24.308Z,18.60
2019-05-25T12:34:50.552Z,18.20
2019-05-25T12:37:16.897Z,18.60
2019-05-25T12:39:43.143Z,18.00
2019-05-25T12:42:09.374Z,17.50
2019-05-25T12:44:35.655Z,16.10
2019-05-25T12:47:01.972Z,16.30
2019-05-25T12:49:28.221Z,18.30
2019-05-25T12:51:54.461Z,17.30
2019-05-25T12:54:20.710Z,16.90
2019-05-25T12:56:46.932Z,17.40
2019-05-25T12:59:13.166Z,17.40
2019-05-25T13:01:39.396Z,18.30
2019-05-25T13:04:05.737Z,19.80
2019-05-25T13:06:31.976Z,18.80
2019-05-25T13:08:58.237Z,16.10
2019-05-25T13:11:24.542Z,16.70
2019-05-25T13:13:50.767Z,16.30
2019-05-25T13:16:17.093Z,16.00
2019-05-25T13:18:43.380Z,16.00
2019-05-25T13:21:09.640Z,16.60
2019-05-25T13:23:35.877Z,18.80
2019-05-25T13:26:02.104Z,18.90
2019-05-25T13:28:28.608Z,19.80
2019-05-25T13:30:54.860Z,18.80
2019-05-25T13:33:21.093Z,17.50
2019-05-25T13:35:47.330Z,18.60
2019-05-25T13:38:13.661Z,18.50
2019-05-25T13:40:40.260Z,20.50
2019-05-25T13:43:06.476Z,21.30
2019-05-25T13:45:32.723Z,20.50
2019-05-25T13:47:59.041Z,18.00
2019-05-25T13:50:25.381Z,17.10
2019-05-25T13:52:51.726Z,18.10
2019-05-25T13:55:18.249Z,18.20
2019-05-25T13:57:44.580Z,17.00
2019-05-25T14:00:11.421Z,17.30
2019-05-25T14:02:37.752Z,18.80
2019-05-25T14:05:04.692Z,18.40
2019-05-25T14:07:31.233Z,17.40
2019-05-25T14:09:57.581Z,17.60
2019-05-25T14:12:23.813Z,18.00
2019-05-25T14:14:50.047Z,18.60
2019-05-25T14:17:16.386Z,18.50
2019-05-25T14:19:42.722Z,18.30
2019-05-25T14:22:08.945Z,18.60
2019-05-25T14:24:35.553Z,18.80
2019-05-25T14:27:01.805Z,18.80
2019-05-25T14:29:28.060Z,21.90
2019-05-25T14:31:54.298Z,18.90
2019-05-25T14:34:20.529Z,18.70
2019-05-25T14:36:47.109Z,19.10
2019-05-25T14:39:13.350Z,20.20
2019-05-25T14:41:39.952Z,21.50
2019-05-25T14:44:06.504Z,21.30
2019-05-25T14:46:32.861Z,21.80
2019-05-25T14:48:59.088Z,21.80
2019-05-25T14:51:25.337Z,20.50
2019-05-25T14:53:51.561Z,20.70
2019-05-25T14:56:18.066Z,20.60
2019-05-25T14:58:44.369Z,21.10
2019-05-25T15:01:10.784Z,21.40
2019-05-25T15:03:37.004Z,24.40
2019-05-25T15:06:03.461Z,23.70
2019-05-25T15:08:29.689Z,22.80
2019-05-25T15:10:56.027Z,23.50
2019-05-25T15:13:22.269Z,23.30
2019-05-25T15:15:48.604Z,24.80
2019-05-25T15:18:14.841Z,24.00
2019-05-25T15:20:41.681Z,23.80
2019-05-25T15:23:07.904Z,22.80
2019-05-25T15:25:34.378Z,23.60
2019-05-25T15:28:00.712Z,23.90
2019-05-25T15:30:26.928Z,23.60
2019-05-25T15:32:53.177Z,23.60
2019-05-25T15:35:20.564Z,22.20
2019-05-25T15:37:47.336Z,23.30
2019-05-25T15:40:14.585Z,24.10
2019-05-25T15:42:40.835Z,24.50
2019-05-25T15:45:08.053Z,25.30
2019-05-25T15:47:34.295Z,25.20
2019-05-25T15:50:00.825Z,25.70
2019-05-25T15:52:27.063Z,24.90
2019-05-25T15:54:53.298Z,24.60
2019-05-25T15:57:19.649Z,23.80
2019-05-25T15:59:45.886Z,25.30
2019-05-25T16:02:12.223Z,25.90
2019-05-25T16:04:38.454Z,26.10
2019-05-25T16:07:04.833Z,26.10
2019-05-25T16:09:31.126Z,27.10
2019-05-25T16:11:57.377Z,27.00
2019-05-25T16:14:23.605Z,27.10
2019-05-25T16:16:49.877Z,27.40
2019-05-25T16:19:16.121Z,28.00
2019-05-25T16:21:42.354Z,28.10
2019-05-25T16:24:08.693Z,27.40
2019-05-25T16:26:45.444Z,28.00
2019-05-25T16:29:03.273Z,27.90
2019-05-25T16:31:29.894Z,27.80
2019-05-25T16:33:56.420Z,27.40
2019-05-25T16:36:22.645Z,27.80
2019-05-25T16:38:48.994Z,27.70
2019-05-25T16:41:15.620Z,28.00
2019-05-25T16:43:41.974Z,27.30
2019-05-25T16:46:08.212Z,27.50
2019-05-25T16:48:34.444Z,27.80
2019-05-25T16:51:00.674Z,28.80
2019-05-25T16:53:27.019Z,28.60
2019-05-25T16:55:54.795Z,31.10
2019-05-25T16:58:21.298Z,30.00
2019-05-25T17:00:47.529Z,31.20
2019-05-25T17:03:27.669Z,31.10
2019-05-25T17:05:41.906Z,32.00
2019-05-25T17:08:08.146Z,32.20
2019-05-25T17:10:34.501Z,32.00
2019-05-25T17:13:00.725Z,31.90
2019-05-25T17:15:26.976Z,31.80
2019-05-25T17:17:53.302Z,31.70
2019-05-25T17:20:20.146Z,32.20
2019-05-25T17:22:46.376Z,32.30
2019-05-25T17:25:13.217Z,31.90
2019-05-25T17:27:39.461Z,32.10
2019-05-25T17:30:07.094Z,31.60
2019-05-25T17:32:33.325Z,32.70
2019-05-25T17:34:59.921Z,32.90
2019-05-25T17:37:26.629Z,32.90
2019-05-25T17:39:52.993Z,33.80
2019-05-25T17:42:19.332Z,32.70
2019-05-25T17:44:45.570Z,33.00
2019-05-25T17:47:11.830Z,34.50
2019-05-25T17:49:38.401Z,32.70
2019-05-25T17:52:04.734Z,33.60
2019-05-25T17:54:30.957Z,33.60
2019-05-25T17:56:57.209Z,34.00
2019-05-25T17:59:23.744Z,33.90
2019-05-25T18:01:49.997Z,34.30
2019-05-25T18:04:16.334Z,33.90
2019-05-25T18:06:42.579Z,34.80
2019-05-25T18:09:09.068Z,35.90
2019-05-25T18:11:35.512Z,35.70
2019-05-25T18:14:01.853Z,35.40
2019-05-25T18:16:28.093Z,35.80
2019-05-25T18:18:54.560Z,36.20
2019-05-25T18:21:20.791Z,35.50
2019-05-25T18:23:47.374Z,36.00
2019-05-25T18:26:13.913Z,35.80
2019-05-25T18:28:40.162Z,35.70
2019-05-25T18:31:06.633Z,35.20
2019-05-25T18:33:32.881Z,35.00
2019-05-25T18:35:59.105Z,35.10
2019-05-25T18:38:25.363Z,36.50
2019-05-25T18:40:51.593Z,36.30
2019-05-25T18:43:17.833Z,36.10
2019-05-25T18:45:44.060Z,36.00
2019-05-25T18:48:10.411Z,35.50
2019-05-25T18:50:36.704Z,35.80
2019-05-25T18:53:03.243Z,35.70
2019-05-25T18:55:29.469Z,35.70
2019-05-25T18:57:55.804Z,36.60
2019-05-25T19:00:22.334Z,36.40
2019-05-25T19:02:48.681Z,36.40
2019-05-25T19:05:15.315Z,36.50
2019-05-25T19:07:41.642Z,37.80
2019-05-25T19:10:08.690Z,36.70
2019-05-25T19:12:34.920Z,36.80
2019-05-25T19:15:01.571Z,36.90
2019-05-25T19:17:27.772Z,37.70
2019-05-25T19:19:54.125Z,37.50
2019-05-25T19:22:20.459Z,36.70
2019-05-25T19:24:46.693Z,37.70
2019-05-25T19:27:13.037Z,37.40
2019-05-25T19:29:39.638Z,37.10
2019-05-25T19:32:05.875Z,36.90
2019-05-25T19:34:32.225Z,37.60
2019-05-25T19:37:03.608Z,37.00
2019-05-25T19:39:26.606Z,37.10
2019-05-25T19:41:52.851Z,37.00
2019-05-25T19:44:19.078Z,37.30
2019-05-25T19:46:45.371Z,37.50
2019-05-25T19:49:11.649Z,37.80
2019-05-25T19:51:37.881Z,38.00
2019-05-25T19:54:04.117Z,38.20
2019-05-25T19:56:30.362Z,38.80
2019-05-25T19:58:56.605Z,39.40
2019-05-25T20:01:23.174Z,40.40
2019-05-25T20:03:49.442Z,39.20
2019-05-25T20:06:15.652Z,39.40
2019-05-25T20:08:41.994Z,40.10
2019-05-25T20:11:08.236Z,39.40
2019-05-25T20:13:54.432Z,40.30
2019-05-25T20:16:24.534Z,40.70
2019-05-25T20:18:48.805Z,42.40
2019-05-25T20:21:15.058Z,43.10
2019-05-25T20:23:41.316Z,44.60
2019-05-25T20:26:07.566Z,46.10
2019-05-25T20:28:33.793Z,47.10
2019-05-25T20:31:00.041Z,47.50
2019-05-25T20:33:28.078Z,49.20
2019-05-25T20:35:54.524Z,48.60
2019-05-25T20:38:20.863Z,49.50
2019-05-25T20:40:47.121Z,50.20
2019-05-25T20:43:13.456Z,51.30
2019-05-25T20:45:39.974Z,52.30
2019-05-25T20:48:10.526Z,52.70
2019-05-25T20:50:34.847Z,54.40
2019-05-25T20:53:01.187Z,54.10
2019-05-25T20:55:27.438Z,54.40
2019-05-25T20:57:53.777Z,54.40
2019-05-25T21:00:23.986Z,54.50
2019-05-25T21:03:04.848Z,56.30
2019-05-25T21:05:16.433Z,55.60
2019-05-25T21:07:42.672Z,56.10
2019-05-25T21:10:10.136Z,55.90
2019-05-25T21:12:36.565Z,55.90
2019-05-25T21:15:05.413Z,56.60
2019-05-25T21:17:31.758Z,56.70
2019-05-25T21:19:58.010Z,58.20
2019-05-25T21:22:24.269Z,59.20
2019-05-25T21:24:50.600Z,58.70
2019-05-25T21:27:16.853Z,59.90
2019-05-25T21:29:43.093Z,62.00
2019-05-25T21:32:09.350Z,61.50
2019-05-25T21:34:35.595Z,61.50
2019-05-25T21:37:01.837Z,61.70
2019-05-25T21:39:28.085Z,61.40
2019-05-25T21:41:54.327Z,61.00
2019-05-25T21:44:20.581Z,63.60
2019-05-25T21:46:46.933Z,64.40
2019-05-25T21:49:13.164Z,65.00
2019-05-25T21:51:39.433Z,68.70
2019-05-25T21:54:05.777Z,68.50
2019-05-25T21:56:32.019Z,68.50
2019-05-25T21:58:58.257Z,67.80
2019-05-25T22:01:24.900Z,69.30
2019-05-25T22:03:51.184Z,70.80
2019-05-25T22:06:24.216Z,70.00
2019-05-25T22:08:45.766Z,70.00
2019-05-25T22:11:12.007Z,71.50
2019-05-25T22:13:38.250Z,72.30
2019-05-25T22:16:04.584Z,71.60
2019-05-25T22:18:31.100Z,72.60
2019-05-25T22:20:57.333Z,72.70
2019-05-25T22:23:23.582Z,74.30
2019-05-25T22:25:49.923Z,74.70
2019-05-25T22:28:16.180Z,73.60
2019-05-25T22:30:42.424Z,74.80
2019-05-25T22:33:08.758Z,77.10
2019-05-25T22:35:35.508Z,80.10
2019-05-25T22:38:02.048Z,79.10
2019-05-25T22:40:28.582Z,81.40
2019-05-25T22:42:55.115Z,81.80
2019-05-25T22:45:21.371Z,83.90
2019-05-25T22:47:47.609Z,86.80
2019-05-25T22:50:14.460Z,85.90
2019-05-25T22:52:40.693Z,86.00
2019-05-25T22:55:07.276Z,87.20
2019-05-25T22:57:33.517Z,87.50
2019-05-25T22:59:59.856Z,88.00
2019-05-25T23:02:26.089Z,89.20
2019-05-25T23:04:52.325Z,90.40
2019-05-25T23:07:18.778Z,92.80
2019-05-25T23:09:45.028Z,95.00
2019-05-25T23:12:11.257Z,94.90
2019-05-25T23:14:37.501Z,93.90
2019-05-25T23:17:04.161Z,94.20
2019-05-25T23:19:30.409Z,94.70
2019-05-25T23:21:56.637Z,96.20
2019-05-25T23:24:22.977Z,96.50
2019-05-25T23:26:49.217Z,95.50
2019-05-25T23:29:15.452Z,95.60
2019-05-25T23:31:41.701Z,95.80
2019-05-25T23:34:08.018Z,94.40
2019-05-25T23:36:34.338Z,93.70
2019-05-25T23:39:00.746Z,93.60
2019-05-25T23:41:26.980Z,93.00
2019-05-25T23:43:53.224Z,94.00
2019-05-25T23:46:19.465Z,94.40
2019-05-25T23:48:45.704Z,95.00
2019-05-25T23:51:12.196Z,96.20
2019-05-25T23:53:38.436Z,97.10
2019-05-25T23:56:04.687Z,96.60
2019-05-25T23:58:30.918Z,96.30
